createdAt,value
2019-01-27T00:00:39.529Z,15.00
2019-01-27T00:03:09.061Z,15.73
2019-01-27T00:05:38.841Z,16.40
2019-01-27T00:08:13.491Z,17.23
2019-01-27T00:10:39.640Z,15.77
2019-01-27T00:13:09.043Z,16.30
2019-01-27T00:15:38.603Z,16.27
2019-01-27T00:18:08.134Z,16.77
2019-01-27T00:20:37.608Z,16.93
2019-01-27T00:23:07.169Z,16.27
2019-01-27T00:25:36.573Z,17.83
2019-01-27T00:28:06.329Z,16.30
2019-01-27T00:30:35.762Z,16.40
2019-01-27T00:33:05.394Z,16.27
2019-01-27T00:35:34.800Z,15.83
2019-01-27T00:38:04.453Z,16.27
2019-01-27T00:40:33.925Z,16.27
2019-01-27T00:43:03.329Z,15.97
2019-01-27T00:45:32.731Z,16.00
2019-01-27T00:48:02.158Z,16.13
2019-01-27T00:50:31.561Z,15.17
2019-01-27T00:53:00.962Z,15.87
2019-01-27T00:55:30.363Z,15.73
2019-01-27T00:57:59.761Z,15.00
2019-01-27T01:00:29.735Z,14.97
2019-01-27T01:02:59.295Z,13.97
2019-01-27T01:05:28.746Z,15.27
2019-01-27T01:07:58.138Z,14.80
2019-01-27T01:10:27.626Z,14.47
2019-01-27T01:12:57.064Z,14.40
2019-01-27T01:15:26.710Z,14.97
2019-01-27T01:17:56.176Z,14.73
2019-01-27T01:20:25.656Z,14.23
2019-01-27T01:22:55.300Z,14.23
2019-01-27T01:25:25.073Z,13.30
2019-01-27T01:27:54.476Z,13.77
2019-01-27T01:30:27.399Z,13.47
2019-01-27T01:32:57.050Z,13.70
2019-01-27T01:35:26.706Z,14.33
2019-01-27T01:37:56.088Z,15.03
2019-01-27T01:40:25.666Z,14.10
2019-01-27T01:42:55.154Z,13.93
2019-01-27T01:45:29.342Z,14.70
2019-01-27T01:47:58.905Z,14.13
2019-01-27T01:50:28.480Z,14.63
2019-01-27T01:52:58.020Z,14.40
2019-01-27T01:55:27.437Z,13.93
2019-01-27T01:57:56.837Z,13.67
2019-01-27T02:00:27.087Z,13.33
2019-01-27T02:02:56.481Z,13.33
2019-01-27T02:05:25.871Z,12.77
2019-01-27T02:07:55.525Z,12.90
2019-01-27T02:10:25.181Z,13.30
2019-01-27T02:12:54.662Z,13.60
2019-01-27T02:15:56.923Z,12.93
2019-01-27T02:18:26.353Z,12.20
2019-01-27T02:20:55.831Z,12.10
2019-01-27T02:23:25.305Z,12.67
2019-01-27T02:25:54.873Z,12.37
2019-01-27T02:28:24.477Z,12.13
2019-01-27T02:30:54.033Z,11.47
2019-01-27T02:33:23.508Z,11.37
2019-01-27T02:35:53.022Z,11.53
2019-01-27T02:38:22.520Z,11.83
2019-01-27T02:40:51.978Z,12.00
2019-01-27T02:43:21.462Z,11.80
2019-01-27T02:45:50.993Z,11.67
2019-01-27T02:48:20.464Z,11.80
2019-01-27T02:50:49.869Z,11.53
2019-01-27T02:53:19.271Z,12.37
2019-01-27T02:55:50.366Z,11.47
2019-01-27T02:58:19.850Z,10.53
2019-01-27T03:00:49.306Z,10.90
2019-01-27T03:03:18.702Z,9.60
2019-01-27T03:05:59.192Z,9.97
2019-01-27T03:08:35.277Z,10.17
2019-01-27T03:11:04.950Z,9.93
2019-01-27T03:13:34.342Z,9.37
2019-01-27T03:16:03.980Z,9.93
2019-01-27T03:18:33.469Z,10.27
2019-01-27T03:21:02.858Z,9.20
2019-01-27T03:23:32.274Z,9.77
2019-01-27T03:26:01.770Z,9.10
2019-01-27T03:28:31.160Z,9.27
2019-01-27T03:31:00.578Z,9.57
2019-01-27T03:33:29.975Z,9.20
2019-01-27T03:35:59.370Z,8.97
2019-01-27T03:38:28.781Z,9.57
2019-01-27T03:40:58.603Z,8.70
2019-01-27T03:43:28.134Z,8.30
2019-01-27T03:45:57.510Z,8.37
2019-01-27T03:48:27.019Z,8.27
2019-01-27T03:50:56.530Z,8.67
2019-01-27T03:53:26.104Z,8.97
2019-01-27T03:55:55.626Z,8.37
2019-01-27T03:58:25.042Z,8.10
2019-01-27T04:00:54.428Z,8.43
2019-01-27T04:03:23.912Z,8.53
2019-01-27T04:05:53.421Z,8.10
2019-01-27T04:08:22.928Z,8.40
2019-01-27T04:10:52.531Z,9.07
2019-01-27T04:13:21.927Z,8.73
2019-01-27T04:15:51.393Z,8.63
2019-01-27T04:18:20.770Z,8.90
2019-01-27T04:20:50.178Z,9.17
2019-01-27T04:23:19.571Z,9.00
2019-01-27T04:25:48.949Z,9.00
2019-01-27T04:28:18.438Z,8.27
2019-01-27T04:30:47.867Z,9.20
2019-01-27T04:33:17.399Z,9.23
2019-01-27T04:35:46.810Z,7.73
2019-01-27T04:38:16.558Z,9.97
2019-01-27T04:40:45.958Z,9.07
2019-01-27T04:43:15.390Z,8.90
2019-01-27T04:45:44.801Z,9.00
2019-01-27T04:48:14.252Z,8.70
2019-01-27T04:50:43.646Z,8.57
2019-01-27T04:53:13.158Z,9.23
2019-01-27T04:55:42.625Z,8.20
2019-01-27T04:58:12.026Z,9.73
2019-01-27T05:00:41.442Z,8.53
2019-01-27T05:03:16.923Z,9.03
2019-01-27T05:05:46.320Z,8.63
2019-01-27T05:08:15.772Z,8.37
2019-01-27T05:10:45.172Z,8.10
2019-01-27T05:13:14.604Z,8.53
2019-01-27T05:15:44.013Z,8.43
2019-01-27T05:18:13.484Z,8.37
2019-01-27T05:20:42.898Z,9.03
2019-01-27T05:23:12.310Z,8.10
2019-01-27T05:25:41.885Z,7.87
2019-01-27T05:28:11.288Z,8.53
2019-01-27T05:30:40.741Z,7.87
2019-01-27T05:33:10.145Z,7.87
2019-01-27T05:35:39.529Z,8.23
2019-01-27T05:38:08.927Z,7.57
2019-01-27T05:40:38.330Z,8.43
2019-01-27T05:43:07.726Z,8.17
2019-01-27T05:45:37.133Z,8.23
2019-01-27T05:48:06.509Z,7.87
2019-01-27T05:50:35.909Z,7.93
2019-01-27T05:53:05.370Z,7.50
2019-01-27T05:55:34.825Z,7.17
2019-01-27T05:58:04.497Z,7.47
2019-01-27T06:00:37.873Z,7.23
2019-01-27T06:03:07.501Z,7.13
2019-01-27T06:05:36.893Z,6.47
2019-01-27T06:08:06.423Z,7.83
2019-01-27T06:10:35.812Z,7.63
2019-01-27T06:13:05.373Z,6.97
2019-01-27T06:15:34.763Z,7.13
2019-01-27T06:18:04.304Z,7.30
2019-01-27T06:20:33.766Z,6.53
2019-01-27T06:23:03.222Z,7.03
2019-01-27T06:25:32.622Z,7.50
2019-01-27T06:28:02.201Z,6.97
2019-01-27T06:30:31.602Z,7.10
2019-01-27T06:33:23.299Z,7.70
2019-01-27T06:35:52.683Z,7.10
2019-01-27T06:38:22.081Z,6.20
2019-01-27T06:40:51.539Z,7.17
2019-01-27T06:43:20.940Z,6.80
2019-01-27T06:45:50.338Z,6.83
2019-01-27T06:48:19.726Z,7.03
2019-01-27T06:50:49.117Z,6.40
2019-01-27T06:53:18.515Z,6.33
2019-01-27T06:55:47.913Z,6.50
2019-01-27T06:58:17.380Z,6.20
2019-01-27T07:00:59.212Z,6.50
2019-01-27T07:03:35.178Z,6.87
2019-01-27T07:06:29.977Z,6.10
2019-01-27T07:09:17.493Z,6.47
2019-01-27T07:12:21.353Z,6.40
2019-01-27T07:15:09.873Z,6.47
2019-01-27T07:17:57.017Z,6.10
2019-01-27T07:20:54.465Z,5.63
2019-01-27T07:23:42.841Z,5.80
2019-01-27T07:26:34.611Z,6.73
2019-01-27T07:29:22.114Z,6.43
2019-01-27T07:32:10.519Z,5.93
2019-01-27T07:34:59.041Z,6.63
2019-01-27T07:37:31.034Z,6.30
2019-01-27T07:40:07.666Z,6.07
2019-01-27T07:42:42.066Z,6.40
2019-01-27T07:45:43.802Z,5.87
2019-01-27T07:48:37.808Z,5.80
2019-01-27T07:51:15.315Z,6.07
2019-01-27T07:53:53.910Z,5.03
2019-01-27T07:56:45.241Z,5.80
2019-01-27T07:59:33.830Z,5.53
2019-01-27T08:02:31.354Z,6.20
2019-01-27T08:05:08.842Z,5.77
2019-01-27T08:07:44.424Z,5.27
2019-01-27T08:10:36.368Z,6.10
2019-01-27T08:13:27.822Z,5.53
2019-01-27T08:16:17.107Z,5.50
2019-01-27T08:19:01.974Z,5.50
2019-01-27T08:21:47.975Z,5.93
2019-01-27T08:24:26.741Z,5.50
2019-01-27T08:27:05.715Z,4.97
2019-01-27T08:29:53.021Z,5.33
2019-01-27T08:32:40.557Z,5.57
2019-01-27T08:35:21.125Z,6.00
2019-01-27T08:38:03.455Z,5.80
2019-01-27T08:40:40.199Z,4.93
2019-01-27T08:43:28.184Z,5.30
2019-01-27T08:46:01.853Z,5.80
2019-01-27T08:48:31.253Z,5.13
2019-01-27T08:51:00.721Z,5.30
2019-01-27T08:53:30.146Z,4.93
2019-01-27T08:55:59.529Z,5.20
2019-01-27T08:58:29.025Z,5.20
2019-01-27T09:01:16.581Z,5.20
2019-01-27T09:03:51.336Z,4.97
2019-01-27T09:06:31.605Z,5.03
2019-01-27T09:09:16.417Z,4.90
2019-01-27T09:11:53.620Z,4.90
2019-01-27T09:14:32.191Z,4.77
2019-01-27T09:17:15.923Z,5.03
2019-01-27T09:20:10.490Z,4.57
2019-01-27T09:22:50.601Z,4.67
2019-01-27T09:25:36.539Z,4.60
2019-01-27T09:28:23.880Z,5.10
2019-01-27T09:31:13.861Z,4.80
2019-01-27T09:34:01.259Z,4.43
2019-01-27T09:36:38.458Z,4.47
2019-01-27T09:39:20.351Z,5.07
2019-01-27T09:42:12.383Z,4.47
2019-01-27T09:44:59.946Z,4.73
2019-01-27T09:47:48.248Z,4.60
2019-01-27T09:50:43.259Z,4.90
2019-01-27T09:53:30.734Z,4.67
2019-01-27T09:56:10.550Z,4.47
2019-01-27T09:58:47.065Z,4.07
2019-01-27T10:01:51.155Z,3.73
2019-01-27T10:04:33.055Z,4.33
2019-01-27T10:07:07.551Z,3.83
2019-01-27T10:09:45.631Z,4.77
2019-01-27T10:12:21.185Z,4.47
2019-01-27T10:15:08.453Z,4.63
2019-01-27T10:18:02.482Z,4.13
2019-01-27T10:20:44.281Z,4.60
2019-01-27T10:23:25.178Z,4.33
2019-01-27T10:26:16.721Z,4.33
2019-01-27T10:29:03.913Z,3.67
2019-01-27T10:31:51.096Z,4.50
2019-01-27T10:34:25.948Z,4.27
2019-01-27T10:37:18.091Z,4.53
2019-01-27T10:40:09.116Z,4.47
2019-01-27T10:42:38.231Z,5.10
2019-01-27T10:45:30.933Z,4.17
2019-01-27T10:48:24.784Z,4.00
2019-01-27T10:51:12.057Z,3.97
2019-01-27T10:53:47.170Z,3.50
2019-01-27T10:56:41.627Z,3.77
2019-01-27T10:59:19.367Z,3.87
2019-01-27T11:01:59.813Z,4.00
2019-01-27T11:04:51.448Z,4.17
2019-01-27T11:07:36.081Z,3.60
2019-01-27T11:10:15.852Z,3.87
2019-01-27T11:13:07.162Z,3.83
2019-01-27T11:15:46.700Z,3.90
2019-01-27T11:18:22.790Z,3.30
2019-01-27T11:21:07.986Z,3.73
2019-01-27T11:23:55.145Z,3.73
2019-01-27T11:26:36.834Z,3.37
2019-01-27T11:29:37.385Z,3.33
2019-01-27T11:32:41.269Z,3.17
2019-01-27T11:35:26.372Z,3.40
2019-01-27T11:38:31.796Z,3.50
2019-01-27T11:41:35.456Z,3.90
2019-01-27T11:44:32.504Z,3.63
2019-01-27T11:47:17.652Z,3.37
2019-01-27T11:49:53.129Z,3.30
2019-01-27T11:52:29.654Z,3.50
2019-01-27T11:54:59.278Z,3.40
2019-01-27T11:57:28.803Z,3.50
2019-01-27T12:00:04.567Z,3.73
2019-01-27T12:02:31.253Z,3.10
2019-01-27T12:05:00.994Z,3.37
2019-01-27T12:07:30.896Z,3.20
2019-01-27T12:10:00.571Z,2.93
2019-01-27T12:12:30.138Z,2.93
2019-01-27T12:15:02.879Z,3.07
2019-01-27T12:17:32.465Z,3.07
2019-01-27T12:20:01.935Z,3.60
2019-01-27T12:22:31.381Z,2.90
2019-01-27T12:25:00.833Z,2.60
2019-01-27T12:27:30.899Z,2.63
2019-01-27T12:30:00.395Z,2.10
2019-01-27T12:32:29.937Z,2.53
2019-01-27T12:34:59.403Z,2.63
2019-01-27T12:37:28.948Z,2.77
2019-01-27T12:39:59.471Z,2.53
2019-01-27T12:42:29.519Z,2.60
2019-01-27T12:44:58.955Z,2.47
2019-01-27T12:47:28.429Z,2.50
2019-01-27T12:49:57.942Z,2.50
2019-01-27T12:52:27.447Z,2.43
2019-01-27T12:54:57.335Z,2.93
2019-01-27T12:57:26.920Z,2.53
2019-01-27T12:59:57.552Z,2.27
2019-01-27T13:02:27.240Z,2.60
2019-01-27T13:04:56.840Z,2.57
2019-01-27T13:07:27.170Z,2.23
2019-01-27T13:09:56.740Z,2.93
2019-01-27T13:12:26.286Z,3.03
2019-01-27T13:14:55.829Z,2.53
2019-01-27T13:17:25.408Z,2.50
2019-01-27T13:19:55.010Z,3.40
2019-01-27T13:22:24.665Z,3.03
2019-01-27T13:24:54.204Z,3.27
2019-01-27T13:27:23.720Z,2.83
2019-01-27T13:29:53.276Z,2.63
2019-01-27T13:32:22.795Z,2.50
2019-01-27T13:34:56.209Z,2.87
2019-01-27T13:37:25.884Z,2.70
2019-01-27T13:39:55.398Z,2.83
2019-01-27T13:42:24.907Z,3.10
2019-01-27T13:44:54.413Z,3.43
2019-01-27T13:47:23.946Z,3.07
2019-01-27T13:49:53.721Z,3.70
2019-01-27T13:52:23.319Z,2.70
2019-01-27T13:54:52.860Z,3.10
2019-01-27T13:57:22.352Z,2.90
2019-01-27T13:59:51.826Z,2.83
2019-01-27T14:02:21.288Z,2.60
2019-01-27T14:04:50.779Z,2.80
2019-01-27T14:07:22.442Z,2.67
2019-01-27T14:09:51.991Z,2.40
2019-01-27T14:12:21.586Z,2.60
2019-01-27T14:14:51.098Z,2.40
2019-01-27T14:17:20.768Z,2.40
2019-01-27T14:19:52.551Z,2.43
2019-01-27T14:22:22.167Z,2.80
2019-01-27T14:24:54.679Z,2.20
2019-01-27T14:27:24.233Z,2.30
2019-01-27T14:29:53.821Z,2.03
2019-01-27T14:32:23.589Z,2.23
2019-01-27T14:34:53.150Z,1.90
2019-01-27T14:37:24.345Z,2.30
2019-01-27T14:39:54.005Z,2.07
2019-01-27T14:42:23.584Z,2.53
2019-01-27T14:44:53.031Z,2.50
2019-01-27T14:47:22.853Z,2.17
2019-01-27T14:49:52.350Z,1.93
2019-01-27T14:52:21.865Z,1.90
2019-01-27T14:54:52.364Z,2.20
2019-01-27T14:57:21.980Z,2.50
2019-01-27T14:59:52.422Z,2.07
2019-01-27T15:02:22.142Z,1.87
2019-01-27T15:04:51.656Z,2.20
2019-01-27T15:07:21.256Z,1.80
2019-01-27T15:09:50.756Z,1.93
2019-01-27T15:12:20.259Z,2.30
2019-01-27T15:14:49.878Z,2.00
2019-01-27T15:17:19.968Z,2.00
2019-01-27T15:19:49.538Z,2.50
2019-01-27T15:22:19.102Z,2.77
2019-01-27T15:24:48.926Z,2.23
2019-01-27T15:27:19.603Z,2.47
2019-01-27T15:29:49.202Z,2.80
2019-01-27T15:32:19.015Z,3.00
2019-01-27T15:34:49.619Z,2.90
2019-01-27T15:37:19.118Z,2.93
2019-01-27T15:39:49.007Z,2.90
2019-01-27T15:42:18.510Z,3.00
2019-01-27T15:44:48.831Z,3.10
2019-01-27T15:47:18.465Z,2.93
2019-01-27T15:49:48.331Z,3.23
2019-01-27T15:52:17.908Z,3.30
2019-01-27T15:54:47.479Z,4.00
2019-01-27T15:57:18.103Z,4.83
2019-01-27T15:59:49.236Z,4.47
2019-01-27T16:02:18.861Z,3.47
2019-01-27T16:04:48.446Z,3.50
2019-01-27T16:07:18.826Z,4.20
2019-01-27T16:09:49.825Z,3.20
2019-01-27T16:12:19.407Z,3.70
2019-01-27T16:14:49.178Z,3.40
2019-01-27T16:17:18.869Z,3.37
2019-01-27T16:19:53.859Z,3.40
2019-01-27T16:22:23.427Z,3.13
2019-01-27T16:24:53.025Z,3.50
2019-01-27T16:27:22.534Z,3.00
2019-01-27T16:30:11.435Z,2.67
2019-01-27T16:32:42.249Z,3.23
2019-01-27T16:35:16.346Z,3.47
2019-01-27T16:37:45.943Z,2.77
2019-01-27T16:40:16.284Z,2.70
2019-01-27T16:42:45.962Z,2.53
2019-01-27T16:45:16.243Z,2.40
2019-01-27T16:47:45.936Z,3.33
2019-01-27T16:50:18.443Z,2.70
2019-01-27T16:53:08.561Z,2.80
2019-01-27T16:55:38.984Z,2.40
2019-01-27T16:58:09.510Z,2.43
2019-01-27T17:00:39.685Z,2.60
2019-01-27T17:03:09.450Z,2.60
2019-01-27T17:05:41.226Z,2.80
2019-01-27T17:08:11.114Z,3.10
2019-01-27T17:10:40.783Z,2.70
2019-01-27T17:13:10.958Z,2.70
2019-01-27T17:15:40.696Z,2.83
2019-01-27T17:18:12.024Z,2.80
2019-01-27T17:20:41.612Z,2.87
2019-01-27T17:23:11.216Z,2.93
2019-01-27T17:25:41.340Z,2.70
2019-01-27T17:28:11.257Z,2.80
2019-01-27T17:30:41.057Z,2.70
2019-01-27T17:33:10.694Z,3.07
2019-01-27T17:35:40.209Z,3.20
2019-01-27T17:38:12.766Z,3.30
2019-01-27T17:40:42.583Z,3.10
2019-01-27T17:43:13.935Z,2.67
2019-01-27T17:45:43.918Z,2.80
2019-01-27T17:48:13.708Z,2.67
2019-01-27T17:50:45.699Z,2.90
2019-01-27T17:53:16.311Z,2.70
2019-01-27T17:55:45.975Z,2.63
2019-01-27T17:58:39.341Z,3.00
2019-01-27T18:01:30.988Z,3.37
2019-01-27T18:04:17.337Z,3.33
2019-01-27T18:06:55.459Z,3.10
2019-01-27T18:09:33.047Z,3.60
2019-01-27T18:12:10.539Z,3.40
2019-01-27T18:14:41.609Z,3.40
2019-01-27T18:17:11.155Z,3.33
2019-01-27T18:19:43.927Z,3.20
2019-01-27T18:22:14.448Z,3.53
2019-01-27T18:24:45.074Z,3.40
2019-01-27T18:27:16.662Z,2.97
2019-01-27T18:29:46.686Z,2.90
2019-01-27T18:32:16.976Z,3.37
2019-01-27T18:34:47.345Z,2.90
2019-01-27T18:37:19.712Z,2.97
2019-01-27T18:39:50.102Z,2.97
2019-01-27T18:42:20.210Z,2.73
2019-01-27T18:44:52.141Z,2.83
2019-01-27T18:47:23.004Z,2.97
2019-01-27T18:49:53.180Z,2.87
2019-01-27T18:52:31.081Z,2.20
2019-01-27T18:55:29.884Z,2.63
2019-01-27T18:58:17.573Z,3.27
2019-01-27T19:01:11.358Z,3.93
2019-01-27T19:04:05.910Z,3.83
2019-01-27T19:06:55.100Z,2.83
2019-01-27T19:09:32.577Z,3.30
2019-01-27T19:12:15.485Z,3.20
2019-01-27T19:15:02.686Z,3.60
2019-01-27T19:17:57.759Z,3.30
2019-01-27T19:20:58.938Z,3.30
2019-01-27T19:24:00.348Z,3.10
2019-01-27T19:26:51.249Z,3.00
2019-01-27T19:29:41.445Z,2.87
2019-01-27T19:32:28.706Z,2.80
2019-01-27T19:35:26.990Z,3.10
2019-01-27T19:38:09.215Z,2.80
2019-01-27T19:40:43.802Z,3.00
2019-01-27T19:43:40.663Z,2.40
2019-01-27T19:46:24.699Z,2.77
2019-01-27T19:49:20.042Z,2.80
2019-01-27T19:52:07.692Z,3.03
2019-01-27T19:54:59.992Z,3.63
2019-01-27T19:57:48.511Z,3.10
2019-01-27T20:00:45.552Z,5.53
2019-01-27T20:03:38.108Z,5.80
2019-01-27T20:06:14.176Z,3.00
2019-01-27T20:09:06.265Z,2.93
2019-01-27T20:11:55.872Z,2.97
2019-01-27T20:14:52.297Z,3.10
2019-01-27T20:17:43.309Z,3.10
2019-01-27T20:20:42.458Z,3.40
2019-01-27T20:23:40.368Z,3.40
2019-01-27T20:26:18.718Z,3.30
2019-01-27T20:29:10.142Z,3.73
2019-01-27T20:31:57.834Z,4.07
2019-01-27T20:34:51.426Z,3.77
2019-01-27T20:37:49.198Z,4.00
2019-01-27T20:40:37.118Z,4.40
2019-01-27T20:43:25.358Z,4.10
2019-01-27T20:46:16.990Z,3.53
2019-01-27T20:49:04.648Z,3.80
2019-01-27T20:51:40.556Z,3.83
2019-01-27T20:54:21.559Z,3.67
2019-01-27T20:57:14.128Z,3.70
2019-01-27T20:59:58.708Z,3.57
2019-01-27T21:02:53.190Z,4.00
2019-01-27T21:05:43.046Z,3.97
2019-01-27T21:08:26.520Z,3.33
2019-01-27T21:11:24.548Z,3.80
2019-01-27T21:14:00.399Z,4.17
2019-01-27T21:16:50.558Z,4.20
2019-01-27T21:19:32.978Z,3.13
2019-01-27T21:22:03.922Z,4.03
2019-01-27T21:24:33.797Z,3.43
2019-01-27T21:27:06.485Z,3.73
2019-01-27T21:29:35.651Z,3.50
2019-01-27T21:32:05.430Z,3.50
2019-01-27T21:34:34.895Z,3.83
2019-01-27T21:37:05.202Z,3.20
2019-01-27T21:39:37.513Z,3.40
2019-01-27T21:42:07.771Z,3.23
2019-01-27T21:44:39.845Z,2.80
2019-01-27T21:47:09.446Z,3.13
2019-01-27T21:49:39.197Z,3.20
2019-01-27T21:52:10.139Z,3.43
2019-01-27T21:54:39.697Z,3.10
2019-01-27T21:57:09.187Z,3.00
2019-01-27T21:59:38.970Z,3.17
2019-01-27T22:02:08.666Z,2.60
2019-01-27T22:04:38.180Z,2.80
2019-01-27T22:07:07.639Z,2.83
2019-01-27T22:09:37.330Z,2.60
2019-01-27T22:12:06.870Z,2.77
2019-01-27T22:14:36.355Z,2.93
2019-01-27T22:17:06.048Z,2.73
2019-01-27T22:19:35.836Z,2.63
2019-01-27T22:22:07.290Z,3.00
2019-01-27T22:24:36.765Z,2.77
2019-01-27T22:27:06.220Z,2.70
2019-01-27T22:29:35.686Z,2.60
2019-01-27T22:32:05.202Z,2.50
2019-01-27T22:34:34.932Z,2.63
2019-01-27T22:37:04.834Z,3.00
2019-01-27T22:39:34.289Z,2.63
2019-01-27T22:42:04.057Z,2.80
2019-01-27T22:44:33.486Z,2.97
2019-01-27T22:47:02.979Z,3.07
2019-01-27T22:49:32.424Z,2.77
2019-01-27T22:52:01.884Z,2.70
2019-01-27T22:54:31.302Z,3.00
2019-01-27T22:57:00.690Z,2.83
2019-01-27T22:59:30.104Z,3.20
2019-01-27T23:01:59.579Z,2.97
2019-01-27T23:04:29.061Z,3.33
2019-01-27T23:06:58.463Z,2.77
2019-01-27T23:09:28.781Z,3.70
2019-01-27T23:11:58.255Z,3.13
2019-01-27T23:14:27.674Z,3.10
2019-01-27T23:16:57.109Z,3.20
2019-01-27T23:19:27.926Z,3.40
2019-01-27T23:21:57.551Z,3.20
2019-01-27T23:24:26.947Z,3.30
2019-01-27T23:26:56.441Z,3.37
2019-01-27T23:29:25.853Z,3.67
2019-01-27T23:31:55.267Z,3.77
2019-01-27T23:34:24.712Z,3.60
2019-01-27T23:36:54.157Z,3.50
2019-01-27T23:39:23.565Z,3.30
2019-01-27T23:41:53.362Z,4.13
2019-01-27T23:44:22.736Z,3.50
2019-01-27T23:46:52.146Z,4.10
2019-01-27T23:49:21.495Z,3.83
2019-01-27T23:51:50.894Z,3.33
2019-01-27T23:54:20.302Z,3.57
2019-01-27T23:56:49.787Z,3.93
2019-01-27T23:59:19.170Z,3.90
